Time;durP1;ratioP1;P1;durP2;ratioP2;P2;SDS_P1;SDS_P2;PMS_P1;PMS_P2;Temp;Humidity;BMP_temperature;BMP_pressure;BME280_temperature;BME280_humidity;BME280_pressure;Samples;Min_cycle;Max_cycle;Signal;HPM_P1;HPM_P2
2022/02/27 00:01:58;;;;;;;32.60;14.13;;;;;;;1.22;99.35;102585.69;3533436;80;98501;-89
2022/02/27 00:06:59;;;;;;;31.95;14.33;;;;;;;1.25;99.56;102583.81;3539898;82;98873;-89
2022/02/27 00:12:00;;;;;;;40.07;18.27;;;;;;;1.29;99.50;102587.64;3540533;80;99166;-88
2022/02/27 00:17:01;;;;;;;38.47;17.60;;;;;;;1.30;100.00;102589.80;3540767;82;25920;-88
2022/02/27 00:22:02;;;;;;;38.67;17.10;;;;;;;1.33;100.00;102592.00;3533067;80;98962;-87
2022/02/27 00:27:03;;;;;;;32.73;16.80;;;;;;;1.34;100.00;102600.41;3542908;79;98269;-89
2022/02/27 00:32:05;;;;;;;37.40;17.97;;;;;;;1.40;100.00;102589.86;3523590;81;99048;-89
2022/02/27 00:37:07;;;;;;;42.23;19.47;;;;;;;1.46;100.00;102593.70;3511991;82;98977;-89
2022/02/27 00:42:08;;;;;;;39.10;17.23;;;;;;;1.53;100.00;102588.84;3508871;81;99473;-89
2022/02/27 00:47:09;;;;;;;34.90;16.70;;;;;;;1.58;100.00;102590.22;3483943;82;25891;-89
2022/02/27 00:52:09;;;;;;;40.27;19.47;;;;;;;1.63;100.00;102592.13;3519959;80;98812;-89
2022/02/27 00:57:13;;;;;;;34.07;16.30;;;;;;;1.59;100.00;102591.05;3513338;82;99012;-89
2022/02/27 01:02:14;;;;;;;34.95;18.12;;;;;;;1.58;100.00;102592.14;3506141;81;99148;-90
2022/02/27 01:07:16;;;;;;;38.93;18.27;;;;;;;1.62;100.00;102598.12;3512433;80;99097;-89
2022/02/27 01:12:16;;;;;;;35.77;17.40;;;;;;;1.64;100.00;102600.58;3514204;81;99065;-90
2022/02/27 01:17:17;;;;;;;37.27;19.53;;;;;;;1.63;100.00;102596.20;3516573;82;26465;-89
2022/02/27 01:22:18;;;;;;;39.20;19.53;;;;;;;1.64;100.00;102595.14;3517705;79;99256;-90
2022/02/27 01:27:19;;;;;;;34.90;18.50;;;;;;;1.69;100.00;102600.04;3511919;80;99269;-89
2022/02/27 01:32:20;;;;;;;32.90;16.60;;;;;;;1.73;100.00;102595.72;3516347;80;99019;-88
2022/02/27 01:37:21;;;;;;;37.17;20.97;;;;;;;1.72;100.00;102600.88;3520572;81;99010;-90
2022/02/27 01:42:22;;;;;;;41.67;20.33;;;;;;;1.65;100.00;102599.48;3483668;80;99114;-90
2022/02/27 01:47:23;;;;;;;42.47;21.70;;;;;;;1.66;100.00;102592.45;3512363;82;26353;-89
2022/02/27 01:52:24;;;;;;;45.48;21.42;;;;;;;1.72;100.00;102597.34;3526912;81;98977;-89
2022/02/27 01:57:25;;;;;;;40.90;21.67;;;;;;;1.67;100.00;102609.00;3542868;82;99247;-90
2022/02/27 02:02:25;;;;;;;34.30;20.10;;;;;;;1.65;100.00;102609.78;3546473;81;99121;-89
2022/02/27 02:07:26;;;;;;;36.07;19.27;;;;;;;1.64;100.00;102617.66;3550638;81;99472;-88
2022/02/27 02:12:29;;;;;;;42.75;22.60;;;;;;;1.65;100.00;102613.86;3545179;82;99336;-89
2022/02/27 02:17:30;;;;;;;41.03;20.00;;;;;;;1.72;100.00;102616.34;3560281;81;33199;-88
2022/02/27 02:22:31;;;;;;;36.53;18.03;;;;;;;1.69;100.00;102616.88;3524872;81;98875;-89
2022/02/27 02:27:32;;;;;;;29.53;16.43;;;;;;;1.72;100.00;102618.52;3553963;82;99314;-89
2022/02/27 02:32:33;;;;;;;26.87;15.00;;;;;;;1.70;100.00;102619.31;3545893;79;98762;-88
2022/02/27 02:37:34;;;;;;;28.93;13.80;;;;;;;1.62;100.00;102619.00;3537993;82;98984;-90
2022/02/27 02:42:41;;;;;;;25.80;15.07;;;;;;;1.47;100.00;102616.20;3536101;82;99299;-88
2022/02/27 02:47:46;;;;;;;25.50;13.53;;;;;;;1.46;100.00;102614.58;3533351;82;33179;-89
2022/02/27 02:52:47;;;;;;;23.17;12.37;;;;;;;1.49;100.00;102615.42;3532455;81;99010;-90
2022/02/27 02:57:48;;;;;;;26.87;14.50;;;;;;;1.47;100.00;102619.75;3541978;80;99222;-90
2022/02/27 03:02:49;;;;;;;29.37;14.80;;;;;;;1.48;100.00;102619.22;3533322;82;99179;-89
2022/02/27 03:07:50;;;;;;;37.83;18.70;;;;;;;1.43;100.00;102623.27;3542026;82;98224;-89
2022/02/27 03:12:51;;;;;;;31.27;18.80;;;;;;;1.43;100.00;102636.83;3533274;80;99316;-88
2022/02/27 03:17:51;;;;;;;29.17;15.10;;;;;;;1.42;100.00;102633.84;3549002;80;99353;-87
2022/02/27 03:22:52;;;;;;;27.93;13.73;;;;;;;1.51;100.00;102641.21;3537660;81;98824;-88
2022/02/27 03:27:53;;;;;;;30.10;15.30;;;;;;;1.53;100.00;102643.67;3537719;81;98892;-88
2022/02/27 03:32:54;;;;;;;23.77;12.87;;;;;;;1.49;100.00;102639.84;3529033;82;99143;-88
2022/02/27 03:37:55;;;;;;;31.80;15.97;;;;;;;1.50;100.00;102651.80;3539379;81;99499;-88
2022/02/27 03:42:56;;;;;;;31.05;14.98;;;;;;;1.46;100.00;102645.78;3531781;81;99330;-89
2022/02/27 03:47:57;;;;;;;31.97;16.37;;;;;;;1.45;100.00;102652.29;3539224;81;99226;-89
2022/02/27 03:52:57;;;;;;;51.87;24.23;;;;;;;1.45;100.00;102659.91;3492582;81;98842;-88
2022/02/27 03:57:58;;;;;;;39.15;19.73;;;;;;;1.38;100.00;102664.72;3474611;83;98871;-88
2022/02/27 04:02:59;;;;;;;34.67;18.60;;;;;;;1.28;100.00;102660.61;3449031;83;99145;-88
2022/02/27 04:08:00;;;;;;;40.77;20.83;;;;;;;1.32;100.00;102676.63;3500774;80;99535;-88
2022/02/27 04:13:01;;;;;;;36.97;18.17;;;;;;;1.25;100.00;102680.63;3544628;82;99281;-88
2022/02/27 04:18:02;;;;;;;35.63;17.77;;;;;;;1.23;100.00;102680.92;3538640;81;99508;-88
2022/02/27 04:23:03;;;;;;;39.37;18.03;;;;;;;1.23;100.00;102681.45;3540422;80;98513;-89
2022/02/27 04:28:04;;;;;;;35.93;19.13;;;;;;;1.21;100.00;102689.83;3534872;82;98834;-89
2022/02/27 04:33:05;;;;;;;35.63;19.33;;;;;;;1.23;100.00;102684.16;3522780;82;99260;-89
2022/02/27 04:38:06;;;;;;;29.83;15.43;;;;;;;1.25;100.00;102689.61;3481752;82;99047;-89
2022/02/27 04:43:07;;;;;;;29.67;16.33;;;;;;;1.26;100.00;102687.16;3474604;83;99061;-89
2022/02/27 04:48:08;;;;;;;29.90;16.37;;;;;;;1.28;100.00;102682.31;3483111;83;99048;-90
2022/02/27 04:53:09;;;;;;;27.20;15.90;;;;;;;1.32;100.00;102679.34;3480757;82;98525;-89
2022/02/27 04:58:10;;;;;;;30.07;16.20;;;;;;;1.33;100.00;102687.78;3477310;83;99440;-89
2022/02/27 05:03:10;;;;;;;29.53;16.60;;;;;;;1.33;100.00;102693.20;3438514;81;99072;-88
2022/02/27 05:08:11;;;;;;;29.35;16.10;;;;;;;1.32;100.00;102693.45;3442268;83;99386;-90
2022/02/27 05:13:12;;;;;;;29.92;16.50;;;;;;;1.26;100.00;102697.22;3452555;81;99480;-88
2022/02/27 05:18:13;;;;;;;31.30;15.93;;;;;;;1.27;100.00;102706.42;3462872;82;99312;-89
2022/02/27 05:23:14;;;;;;;32.13;17.27;;;;;;;1.26;100.00;102702.64;3453195;82;98754;-88
2022/02/27 05:28:15;;;;;;;29.67;15.40;;;;;;;1.26;100.00;102702.64;3458608;84;98805;-89
2022/02/27 05:33:16;;;;;;;32.50;17.23;;;;;;;1.26;100.00;102703.44;3466025;82;99139;-89
2022/02/27 05:38:17;;;;;;;31.27;17.60;;;;;;;1.22;100.00;102702.88;3547444;81;99678;-88
2022/02/27 05:43:18;;;;;;;30.77;16.85;;;;;;;1.22;100.00;102713.16;3534526;82;99387;-88
2022/02/27 05:48:19;;;;;;;32.27;17.43;;;;;;;1.20;100.00;102704.48;3541728;78;99402;-89
2022/02/27 05:53:20;;;;;;;35.90;17.80;;;;;;;1.25;100.00;102717.25;3541617;81;98332;-89
2022/02/27 05:58:21;;;;;;;30.10;16.15;;;;;;;1.23;100.00;102720.77;3542535;82;99269;-88
2022/02/27 06:03:21;;;;;;;38.33;18.97;;;;;;;1.15;100.00;102721.27;3532383;82;99158;-88
2022/02/27 06:08:22;;;;;;;34.30;18.37;;;;;;;1.19;100.00;102729.14;3541073;80;99185;-88
2022/02/27 06:13:23;;;;;;;39.87;19.97;;;;;;;1.24;100.00;102735.97;3534334;82;99743;-88
2022/02/27 06:18:24;;;;;;;30.03;17.80;;;;;;;1.27;100.00;102747.11;3542909;82;99115;-88
2022/02/27 06:23:25;;;;;;;32.50;19.13;;;;;;;1.25;100.00;102749.28;3538780;82;98966;-89
2022/02/27 06:28:26;;;;;;;32.07;17.13;;;;;;;1.33;100.00;102754.77;3538088;81;99284;-89
2022/02/27 06:33:27;;;;;;;32.17;18.25;;;;;;;1.43;100.00;102762.44;3530267;82;98885;-89
2022/02/27 06:38:27;;;;;;;33.67;16.43;;;;;;;1.51;100.00;102762.50;3547281;81;99413;-89
2022/02/27 06:43:32;;;;;;;33.00;17.47;;;;;;;1.53;100.00;102769.30;3523353;82;99524;-89
2022/02/27 06:48:31;;;;;;;31.73;17.12;;;;;;;1.52;100.00;102781.77;3529024;82;99464;-88
2022/02/27 06:53:32;;;;;;;29.10;16.13;;;;;;;1.46;100.00;102785.00;3528124;79;98635;-88
2022/02/27 06:58:33;;;;;;;28.87;15.73;;;;;;;1.44;100.00;102794.47;3530733;81;99153;-88
2022/02/27 07:03:34;;;;;;;28.40;16.23;;;;;;;1.37;100.00;102791.16;3526912;81;99232;-89
2022/02/27 07:08:35;;;;;;;28.30;15.30;;;;;;;1.28;100.00;102792.17;3534698;80;99426;-87
2022/02/27 07:13:35;;;;;;;30.90;15.83;;;;;;;1.21;100.00;102799.69;3527387;79;99260;-88
2022/02/27 07:18:36;;;;;;;24.80;14.47;;;;;;;1.24;100.00;102807.84;3507455;79;99021;-88
2022/02/27 07:23:37;;;;;;;29.03;15.50;;;;;;;1.34;100.00;102806.06;3527223;81;99011;-88
2022/02/27 07:28:38;;;;;;;29.03;14.83;;;;;;;1.38;100.00;102811.23;3535759;82;99087;-88
2022/02/27 07:33:38;;;;;;;29.77;15.33;;;;;;;1.52;100.00;102808.91;3521314;80;99196;-88
2022/02/27 07:38:39;;;;;;;20.73;12.57;;;;;;;1.55;100.00;102810.59;3526774;80;99420;-87
2022/02/27 07:43:40;;;;;;;23.87;12.60;;;;;;;1.59;99.64;102800.03;3520844;80;98685;-88
2022/02/27 07:48:41;;;;;;;22.20;12.10;;;;;;;1.52;99.04;102814.33;3523347;81;99247;-88
2022/02/27 07:53:42;;;;;;;23.37;12.50;;;;;;;1.59;99.55;102806.81;3525809;82;98577;-88
2022/02/27 07:58:42;;;;;;;21.60;12.13;;;;;;;1.66;98.47;102805.52;3526067;82;98849;-88
2022/02/27 08:03:44;;;;;;;19.97;10.93;;;;;;;1.72;98.10;102799.57;3529365;81;98630;-88
2022/02/27 08:08:45;;;;;;;22.63;11.20;;;;;;;1.71;98.15;102799.30;3534782;81;99169;-88
2022/02/27 08:13:46;;;;;;;22.37;10.90;;;;;;;1.83;98.20;102798.03;3519760;81;98882;-88
2022/02/27 08:18:48;;;;;;;17.05;10.13;;;;;;;1.92;97.88;102791.02;3524236;82;98872;-87
2022/02/27 08:23:49;;;;;;;19.77;9.50;;;;;;;2.07;97.49;102779.45;3518318;82;98576;-88
2022/02/27 08:28:50;;;;;;;20.67;10.17;;;;;;;2.14;96.75;102782.17;3526760;82;97469;-88
2022/02/27 08:33:51;;;;;;;22.07;10.00;;;;;;;2.26;95.79;102784.16;3520474;80;98976;-88
2022/02/27 08:38:54;;;;;;;17.60;9.57;;;;;;;2.37;96.28;102777.69;3532367;82;99060;-88
2022/02/27 08:43:54;;;;;;;19.30;10.27;;;;;;;2.51;95.68;102788.89;3520077;81;98999;-88
2022/02/27 08:48:55;;;;;;;21.80;11.47;;;;;;;2.60;95.72;102789.99;3510718;82;98936;-88
2022/02/27 08:53:56;;;;;;;21.37;10.57;;;;;;;2.89;96.71;102774.87;3520575;82;98877;-89
2022/02/27 08:58:57;;;;;;;22.00;10.80;;;;;;;3.22;96.71;102783.33;3534477;82;35083;-89
2022/02/27 09:03:58;;;;;;;19.87;9.80;;;;;;;3.68;96.42;102779.53;3527453;82;98596;-89
2022/02/27 09:08:59;;;;;;;16.10;9.17;;;;;;;3.99;96.73;102778.93;3546232;81;98722;-88
2022/02/27 09:13:59;;;;;;;17.00;7.77;;;;;;;4.53;95.65;102770.30;3521814;82;98991;-89
2022/02/27 09:19:00;;;;;;;15.90;8.35;;;;;;;4.90;92.33;102765.98;3534980;82;98607;-90
2022/02/27 09:24:03;;;;;;;12.30;6.57;;;;;;;5.70;95.95;102767.25;3528428;79;99078;-89
2022/02/27 09:29:04;;;;;;;11.33;6.15;;;;;;;6.39;92.27;102759.42;3529498;82;34826;-90
2022/02/27 09:34:06;;;;;;;10.10;5.63;;;;;;;7.07;88.14;102767.48;3525768;81;98396;-89
2022/02/27 09:39:07;;;;;;;8.73;5.17;;;;;;;7.51;87.78;102771.98;3506087;80;98635;-88
2022/02/27 09:44:08;;;;;;;9.30;5.43;;;;;;;8.26;86.68;102759.11;3513233;82;98971;-89
2022/02/27 09:49:09;;;;;;;11.30;5.47;;;;;;;9.00;85.97;102757.19;3519362;82;98680;-89
2022/02/27 09:54:13;;;;;;;11.37;5.60;;;;;;;10.01;85.05;102763.14;3508472;82;98989;-90
2022/02/27 09:59:13;;;;;;;9.75;5.97;;;;;;;10.36;83.10;102762.75;3516619;82;34794;-89
2022/02/27 10:04:20;;;;;;;10.80;7.03;;;;;;;10.92;80.53;102766.83;3509605;80;99010;-89
2022/02/27 10:09:24;;;;;;;10.98;6.00;;;;;;;11.51;78.19;102761.87;3489438;82;99181;-89
2022/02/27 10:14:28;;;;;;;12.15;6.50;;;;;;;11.82;74.57;102762.50;3510465;82;99290;-90
2022/02/27 10:19:29;;;;;;;12.90;6.72;;;;;;;11.36;72.27;102765.95;3515918;81;99007;-89
2022/02/27 10:24:35;;;;;;;10.17;5.90;;;;;;;11.36;72.27;102765.95;3507687;82;99365;-89
2022/02/27 10:29:36;;;;;;;11.25;6.72;;;;;;;11.53;70.21;102760.41;3516955;82;26397;-89
2022/02/27 10:34:38;;;;;;;13.53;7.20;;;;;;;11.95;71.31;102763.64;3514108;81;99349;-88
2022/02/27 10:39:46;;;;;;;13.48;7.45;;;;;;;12.10;68.70;102754.03;3535013;81;99278;-89
2022/02/27 10:45:00;;;;;;;10.90;6.28;;;;;;;11.09;62.99;102755.25;3523170;82;99068;-88
2022/02/27 10:50:13;;;;;;;10.95;6.33;;;;;;;10.62;65.57;102735.51;3526713;82;99332;-90
2022/02/27 10:55:14;;;;;;;11.55;5.62;;;;;;;10.52;66.01;102753.70;3529723;81;99340;-90
2022/02/27 11:00:26;;;;;;;10.00;5.25;;;;;;;11.02;65.41;102750.77;3522066;81;99147;-89
2022/02/27 11:05:31;;;;;;;9.53;5.37;;;;;;;10.46;62.11;102752.82;3548785;81;35377;-89
2022/02/27 11:10:35;;;;;;;10.45;6.15;;;;;;;10.21;64.04;102743.91;3524712;82;99041;-88
2022/02/27 11:15:37;;;;;;;9.78;5.55;;;;;;;10.51;63.06;102736.95;3526731;81;99127;-91
2022/02/27 11:20:40;;;;;;;10.48;6.55;;;;;;;10.56;64.02;102734.59;3538953;80;99304;-90
2022/02/27 11:25:41;;;;;;;12.30;7.22;;;;;;;10.65;63.46;102726.62;3532808;82;99118;-90
2022/02/27 11:30:45;;;;;;;12.80;6.53;;;;;;;10.86;62.79;102717.15;3504350;79;99036;-88
2022/02/27 11:35:56;;;;;;;13.43;7.22;;;;;;;10.59;60.23;102716.07;3531698;82;34759;-89
2022/02/27 11:41:18;;;;;;;12.05;6.80;;;;;;;10.25;59.01;102718.75;3523883;82;98865;-90
2022/02/27 11:46:41;;;;;;;13.48;6.85;;;;;;;10.00;61.66;102711.17;3558053;80;98830;-89
2022/02/27 11:52:01;;;;;;;11.90;6.33;;;;;;;10.00;59.76;102703.74;3521079;80;99079;-88
2022/02/27 11:57:06;;;;;;;10.13;4.78;;;;;;;9.45;59.43;102701.69;3537439;80;99142;-89
2022/02/27 12:02:22;;;;;;;9.78;6.05;;;;;;;9.10;60.13;102688.86;3532301;80;98612;-88
2022/02/27 12:07:26;;;;;;;9.80;5.07;;;;;;;8.92;60.85;102681.59;3527890;80;98862;-89
2022/02/27 12:12:42;;;;;;;12.23;6.12;;;;;;;8.85;60.59;102661.44;3524235;81;98539;-91
2022/02/27 12:17:53;;;;;;;10.55;5.47;;;;;;;8.79;61.15;102685.20;3529896;82;35272;-89
2022/02/27 12:22:54;;;;;;;12.13;5.93;;;;;;;8.80;60.88;102679.95;3517946;81;98537;-92
2022/02/27 12:27:55;;;;;;;9.73;4.37;;;;;;;8.84;62.43;102668.03;3490871;79;98469;-88
2022/02/27 12:33:06;;;;;;;10.17;3.63;;;;;;;8.96;61.18;102660.07;3503759;82;98541;-89
2022/02/27 12:38:14;;;;;;;8.00;3.42;;;;;;;8.80;60.03;102669.80;3553923;80;99118;-89
2022/02/27 12:43:14;;;;;;;11.43;4.40;;;;;;;8.82;59.39;102670.84;3537437;80;98887;-90
2022/02/27 12:48:16;;;;;;;10.50;4.27;;;;;;;8.78;59.91;102663.78;3549680;80;98693;-88
2022/02/27 12:53:19;;;;;;;9.60;4.50;;;;;;;8.77;57.72;102660.80;3517015;81;98235;-89
2022/02/27 12:58:20;;;;;;;6.45;3.35;;;;;;;8.65;58.86;102661.09;3528298;82;98412;-91
2022/02/27 13:03:21;;;;;;;7.73;3.40;;;;;;;8.52;57.63;102661.41;3530887;82;98909;-91
2022/02/27 13:08:23;;;;;;;6.77;3.03;;;;;;;8.37;56.75;102651.31;3548535;82;98462;-92
2022/02/27 13:13:23;;;;;;;7.87;3.00;;;;;;;8.39;58.25;102644.39;3550460;82;98536;-91
2022/02/27 13:18:25;;;;;;;6.00;2.40;;;;;;;8.30;58.26;102646.23;3547640;80;98537;-91
2022/02/27 13:23:27;;;;;;;8.30;3.17;;;;;;;8.26;55.86;102641.68;3543056;82;98475;-90
2022/02/27 13:28:28;;;;;;;6.42;2.40;;;;;;;8.12;55.39;102635.39;3537274;82;98653;-90
2022/02/27 13:33:29;;;;;;;4.80;2.27;;;;;;;7.90;53.98;102633.94;3543062;80;98250;-91
2022/02/27 13:38:30;;;;;;;7.30;3.00;;;;;;;7.87;56.28;102624.40;3510135;80;98593;-90
2022/02/27 13:43:38;;;;;;;6.53;2.63;;;;;;;7.90;55.18;102626.51;3482189;83;98437;-91
2022/02/27 13:48:39;;;;;;;9.35;2.77;;;;;;;7.78;54.29;102624.02;3490617;81;97717;-90
2022/02/27 13:53:40;;;;;;;7.87;3.20;;;;;;;7.60;54.35;102626.31;3496775;83;98057;-91
2022/02/27 13:58:44;;;;;;;8.07;2.87;;;;;;;7.71;56.98;102618.97;3491165;83;98324;-90
2022/02/27 14:03:50;;;;;;;8.67;2.60;;;;;;;7.60;53.78;102619.46;3483907;83;98347;-90
2022/02/27 14:08:59;;;;;;;7.95;2.42;;;;;;;7.42;56.22;102619.80;3505439;81;98457;-90
2022/02/27 14:14:14;;;;;;;6.87;2.63;;;;;;;7.49;57.95;102618.03;3485836;83;98595;-90
2022/02/27 14:19:24;;;;;;;6.85;1.92;;;;;;;7.37;54.35;102615.78;3498234;82;98379;-90
2022/02/27 14:24:25;;;;;;;6.75;1.92;;;;;;;7.23;55.50;102610.03;3470224;83;98544;-90
2022/02/27 14:29:35;;;;;;;7.30;2.47;;;;;;;6.97;51.04;102615.69;3502235;82;33903;-91
2022/02/27 14:34:36;;;;;;;5.60;2.00;;;;;;;6.82;52.77;102614.02;3491012;82;98617;-91
2022/02/27 14:39:37;;;;;;;5.73;1.50;;;;;;;6.76;51.90;102622.64;3515619;80;98295;-90
2022/02/27 14:44:39;;;;;;;5.87;2.10;;;;;;;6.64;51.07;102620.34;3514328;80;98602;-92
2022/02/27 14:49:40;;;;;;;5.45;1.80;;;;;;;6.57;49.00;102625.94;3509132;80;98947;-90
2022/02/27 14:54:41;;;;;;;6.47;2.23;;;;;;;6.45;50.25;102625.04;3532885;80;98887;-93
2022/02/27 14:59:43;;;;;;;7.00;2.60;;;;;;;6.28;49.62;102626.08;3515177;81;98606;-88
2022/02/27 15:04:43;;;;;;;9.07;2.20;;;;;;;6.09;49.63;102619.80;3517791;82;98636;-90
2022/02/27 15:09:44;;;;;;;8.40;2.50;;;;;;;5.98;50.48;102616.94;3514612;80;98911;-90
2022/02/27 15:14:45;;;;;;;7.00;2.27;;;;;;;5.80;49.96;102619.09;3532778;81;98564;-89
2022/02/27 15:19:46;;;;;;;5.43;1.73;;;;;;;5.67;48.89;102620.31;3518989;81;98643;-90
2022/02/27 15:24:47;;;;;;;7.33;2.00;;;;;;;5.56;48.95;102612.77;3514395;82;100658;-89
2022/02/27 15:29:48;;;;;;;5.60;1.77;;;;;;;5.41;47.85;102608.05;3508415;82;98736;-90
2022/02/27 15:34:49;;;;;;;4.03;1.57;;;;;;;5.32;48.82;102604.30;3516454;81;98367;-89
2022/02/27 15:39:52;;;;;;;6.15;2.10;;;;;;;5.17;48.50;102594.90;3480490;82;98868;-90
2022/02/27 15:44:52;;;;;;;17.63;7.33;;;;;;;5.06;48.61;102599.66;3496135;83;98570;-91
2022/02/27 15:49:53;;;;;;;20.65;9.03;;;;;;;5.02;52.34;102610.08;3495715;82;98674;-89
2022/02/27 15:54:54;;;;;;;7.33;2.43;;;;;;;4.94;51.15;102608.78;3493904;82;97922;-90
2022/02/27 15:59:56;;;;;;;9.43;3.53;;;;;;;4.77;50.69;102605.66;3484724;83;98474;-90
2022/02/27 16:04:57;;;;;;;9.27;3.60;;;;;;;4.62;50.32;102615.86;3493291;83;98101;-90
2022/02/27 16:09:58;;;;;;;8.20;3.23;;;;;;;4.48;51.23;102614.89;3492653;82;98505;-90
2022/02/27 16:14:59;;;;;;;9.10;3.37;;;;;;;4.34;51.52;102608.42;3505793;83;98467;-90
2022/02/27 16:20:00;;;;;;;13.43;4.23;;;;;;;4.22;51.96;102613.41;3488995;82;98803;-89
2022/02/27 16:25:01;;;;;;;18.30;7.80;;;;;;;4.09;53.22;102616.77;3498637;82;99122;-90
2022/02/27 16:30:05;;;;;;;15.70;5.10;;;;;;;3.97;53.54;102611.64;3488176;83;98424;-90
2022/02/27 16:35:07;;;;;;;13.00;5.62;;;;;;;3.83;53.04;102617.98;3503333;82;98283;-89
2022/02/27 16:40:09;;;;;;;11.27;4.87;;;;;;;3.69;54.20;102622.38;3498007;82;98905;-89
2022/02/27 16:45:10;;;;;;;13.40;5.63;;;;;;;3.55;54.67;102619.42;3505732;83;99115;-89
2022/02/27 16:50:11;;;;;;;20.95;8.60;;;;;;;3.43;55.00;102621.65;3516060;82;99091;-89
2022/02/27 16:55:13;;;;;;;21.37;8.33;;;;;;;3.31;56.13;102622.50;3507049;83;98938;-89
2022/02/27 17:00:14;;;;;;;19.17;8.10;;;;;;;3.24;57.50;102623.34;3512775;82;98679;-89
2022/02/27 17:05:15;;;;;;;20.00;7.93;;;;;;;3.14;58.16;102627.96;3518085;82;25977;-89
2022/02/27 17:10:18;;;;;;;22.35;10.00;;;;;;;3.03;59.08;102631.25;3503575;83;98916;-89
2022/02/27 17:15:19;;;;;;;23.40;10.05;;;;;;;2.89;59.39;102627.44;3513797;82;99254;-90
2022/02/27 17:20:20;;;;;;;21.03;8.80;;;;;;;2.76;60.08;102638.05;3503839;83;99257;-90
2022/02/27 17:25:22;;;;;;;20.10;9.10;;;;;;;2.64;61.17;102633.42;3488660;83;99004;-90
2022/02/27 17:30:23;;;;;;;14.07;5.57;;;;;;;2.49;61.55;102640.19;3506794;82;98758;-90
2022/02/27 17:35:24;;;;;;;15.37;5.43;;;;;;;2.29;61.95;102635.53;3511969;82;26620;-89
2022/02/27 17:40:28;;;;;;;16.23;7.60;;;;;;;2.07;62.44;102632.22;3547510;80;98894;-89
2022/02/27 17:45:29;;;;;;;17.13;7.63;;;;;;;1.91;63.12;102627.02;3555504;80;98654;-89
2022/02/27 17:50:31;;;;;;;17.90;6.17;;;;;;;1.78;63.70;102631.03;3546609;81;99214;-89
2022/02/27 17:55:34;;;;;;;17.53;7.43;;;;;;;1.63;64.78;102636.39;3557720;81;98699;-88
2022/02/27 18:00:35;;;;;;;17.10;6.97;;;;;;;1.53;65.45;102629.55;3560874;81;98975;-88
2022/02/27 18:05:36;;;;;;;19.87;6.83;;;;;;;1.43;65.66;102639.54;3560964;80;26176;-89
2022/02/27 18:10:37;;;;;;;16.20;7.20;;;;;;;1.32;66.48;102635.13;3547234;80;98838;-92
2022/02/27 18:15:38;;;;;;;28.20;10.77;;;;;;;1.14;67.10;102620.62;3563622;81;98519;-91
2022/02/27 18:20:38;;;;;;;46.87;16.83;;;;;;;1.09;67.52;102640.95;3551240;81;98874;-92
2022/02/27 18:25:39;;;;;;;54.77;20.70;;;;;;;0.95;67.69;102636.52;3558406;81;98051;-91
2022/02/27 18:30:40;;;;;;;43.27;18.57;;;;;;;0.82;68.04;102636.13;3576723;81;99051;-91
2022/02/27 18:35:41;;;;;;;30.37;13.83;;;;;;;0.71;68.50;102635.20;3565777;80;26960;-89
2022/02/27 18:40:42;;;;;;;47.27;16.57;;;;;;;0.60;68.63;102636.75;3528632;81;99132;-92
2022/02/27 18:45:43;;;;;;;32.97;14.83;;;;;;;0.45;68.80;102631.98;3524323;82;99170;-91
2022/02/27 18:50:44;;;;;;;65.50;26.40;;;;;;;0.37;68.83;102635.17;3519765;82;98727;-92
2022/02/27 18:55:45;;;;;;;39.83;17.20;;;;;;;0.34;69.04;102641.08;3537273;81;98772;-90
2022/02/27 19:00:46;;;;;;;41.70;18.07;;;;;;;0.19;69.51;102607.09;3520254;82;99482;-91
2022/02/27 19:05:51;;;;;;;39.07;16.73;;;;;;;0.19;69.51;102607.09;3536896;82;33663;-92
2022/02/27 19:10:50;;;;;;;49.35;20.30;;;;;;;0.27;69.91;102626.11;3533289;82;99017;-92
2022/02/27 19:15:51;;;;;;;38.93;15.40;;;;;;;0.22;70.26;102626.08;3520559;82;98637;-91
2022/02/27 19:20:52;;;;;;;37.17;14.80;;;;;;;0.19;70.45;102627.41;3538262;80;99178;-91
2022/02/27 19:25:53;;;;;;;36.47;14.13;;;;;;;0.17;70.89;102626.83;3527848;82;99295;-91
2022/02/27 19:30:54;;;;;;;33.27;13.40;;;;;;;0.13;71.41;102625.69;3520830;81;99010;-92
2022/02/27 19:35:57;;;;;;;54.93;29.33;;;;;;;0.08;71.43;102622.13;3520552;82;33220;-91
2022/02/27 19:41:01;;;;;;;46.33;19.98;;;;;;;0.03;71.96;102614.78;3548927;81;99000;-91
2022/02/27 19:46:06;;;;;;;47.37;19.60;;;;;;;-0.03;72.30;102616.31;3552483;82;98794;-91
2022/02/27 19:51:07;;;;;;;38.25;18.80;;;;;;;-0.11;72.96;102609.98;3551024;80;99512;-91
2022/02/27 19:56:07;;;;;;;42.80;18.00;;;;;;;-0.20;73.59;102614.23;3566934;82;99465;-92
2022/02/27 20:01:08;;;;;;;44.40;15.97;;;;;;;-0.27;73.93;102612.78;3560555;81;98938;-92
2022/02/27 20:06:09;;;;;;;39.13;16.00;;;;;;;-0.49;74.73;102615.49;3544719;82;99464;-92
2022/02/27 20:11:12;;;;;;;34.80;15.90;;;;;;;-0.49;74.73;102615.49;3546172;82;99162;-91
2022/02/27 20:16:14;;;;;;;29.87;12.43;;;;;;;-0.60;75.06;102618.30;3548095;81;98892;-89
2022/02/27 20:21:15;;;;;;;29.20;12.85;;;;;;;-0.72;75.28;102625.70;3538570;82;99362;-91
2022/02/27 20:26:16;;;;;;;47.70;18.00;;;;;;;-0.87;75.56;102618.72;3552385;81;99517;-92
2022/02/27 20:31:17;;;;;;;42.50;18.57;;;;;;;-0.87;76.20;102622.26;3529504;80;99250;-91
2022/02/27 20:36:21;;;;;;;47.20;18.37;;;;;;;-0.90;76.22;102610.58;3541236;81;99631;-89
2022/02/27 20:41:22;;;;;;;45.93;18.67;;;;;;;-0.89;76.54;102611.41;3511522;82;99093;-91
2022/02/27 20:46:23;;;;;;;56.80;19.97;;;;;;;-0.90;76.83;102611.92;3511992;83;99076;-90
2022/02/27 20:51:24;;;;;;;54.90;21.20;;;;;;;-0.98;77.32;102602.07;3504645;82;99525;-91
2022/02/27 20:56:25;;;;;;;47.47;17.30;;;;;;;-1.02;77.24;102609.86;3510027;83;99556;-92
2022/02/27 21:01:27;;;;;;;48.50;16.70;;;;;;;-1.08;77.33;102604.61;3505157;82;99238;-92
2022/02/27 21:06:28;;;;;;;47.30;17.63;;;;;;;-1.12;77.57;102610.22;3506632;82;99515;-91
2022/02/27 21:11:29;;;;;;;49.23;20.77;;;;;;;-1.13;77.91;102615.34;3508355;83;98801;-90
2022/02/27 21:16:30;;;;;;;47.90;17.90;;;;;;;-1.17;78.32;102612.32;3519947;82;99339;-89
2022/02/27 21:21:31;;;;;;;48.77;20.17;;;;;;;-1.20;78.55;102612.80;3495163;83;99313;-89
2022/02/27 21:26:32;;;;;;;47.80;18.53;;;;;;;-1.21;79.04;102607.66;3505353;82;99472;-91
2022/02/27 21:31:33;;;;;;;44.13;18.30;;;;;;;-1.23;79.23;102615.17;3505420;81;99197;-91
2022/02/27 21:36:34;;;;;;;43.10;16.87;;;;;;;-1.24;79.94;102618.95;3501379;83;99446;-91
2022/02/27 21:41:35;;;;;;;36.83;16.30;;;;;;;-1.25;79.87;102622.72;3528407;82;99050;-87
2022/02/27 21:46:36;;;;;;;44.47;18.90;;;;;;;-1.25;80.52;102620.02;3538212;80;99053;-91
2022/02/27 21:51:39;;;;;;;47.10;18.23;;;;;;;-1.30;80.55;102615.36;3545625;80;99176;-91
2022/02/27 21:56:40;;;;;;;53.23;19.83;;;;;;;-1.32;80.71;102613.97;3544905;82;99278;-89
2022/02/27 22:01:41;;;;;;;43.33;16.53;;;;;;;-1.33;81.01;102618.54;3540116;82;99440;-88
2022/02/27 22:06:42;;;;;;;43.93;16.30;;;;;;;-1.36;81.21;102614.16;3544064;82;99621;-89
2022/02/27 22:11:43;;;;;;;34.70;15.07;;;;;;;-1.37;81.74;102620.08;3543846;81;98963;-89
2022/02/27 22:16:45;;;;;;;41.97;16.50;;;;;;;-1.38;82.17;102610.90;3547181;80;99512;-89
2022/02/27 22:21:46;;;;;;;35.30;15.20;;;;;;;-1.39;82.16;102610.59;3536269;82;99446;-90
2022/02/27 22:26:47;;;;;;;41.67;16.93;;;;;;;-1.40;82.36;102612.48;3569508;82;99482;-90
2022/02/27 22:31:48;;;;;;;35.03;15.37;;;;;;;-1.41;82.55;102608.16;3564333;82;99266;-91
2022/02/27 22:36:49;;;;;;;31.90;14.73;;;;;;;-1.42;82.27;102608.39;3567633;82;99166;-91
2022/02/27 22:41:50;;;;;;;37.27;13.97;;;;;;;-1.43;82.63;102604.86;3535853;82;98833;-90
2022/02/27 22:46:50;;;;;;;34.30;12.90;;;;;;;-1.46;82.73;102608.07;3517734;82;99082;-90
2022/02/27 22:51:52;;;;;;;40.98;12.13;;;;;;;-1.44;83.11;102605.93;3514391;82;99485;-91
2022/02/27 22:56:53;;;;;;;29.47;12.50;;;;;;;-1.45;83.35;102600.77;3520358;83;100193;-90
2022/02/27 23:01:53;;;;;;;32.43;12.93;;;;;;;-1.50;83.39;102606.08;3514082;81;99694;-92
2022/02/27 23:06:54;;;;;;;32.33;13.17;;;;;;;-1.53;83.67;102601.19;3516075;83;99569;-93